One Group — DH9396 — position and weather

sailwx.info

Track history (hours):
 
Tides and Currents Weather Stations Pressure Air Temp Water Temp Dewpoint Dewpoint Depression Visibility Wind Speed Wind Dir Waves Ship Positions

One Group

Last reported at 2018-Apr-30 15:31 UTC. Time now 2018-Jun-23 06:28 UTC.
Position N 39°34' E 002°38'.
Warning: this ship's position is 53 days out of date.

Length 5 m.

Type: Pleasure craft. MMSI: 211755340.

Date/timePositionNaut miles runAvg speedWind from/ knotsBaromVisibWave heightAir tempDewpointWater temp
2018-Apr-30 15:31N 39°34' E 002°38'0 0.0
2018-Apr-30 14:58N 39°34' E 002°38'0 0.1
2018-Apr-30 14:30N 39°34' E 002°38'0 0.1
2018-Apr-30 13:59N 39°34' E 002°38'0 0.0
2018-Apr-30 13:29N 39°34' E 002°38'1 2.5
2018-Apr-30 13:00N 39°33' E 002°39'1 1.3
2018-Apr-30 12:30N 39°33' E 002°40'0 0.8
2018-Apr-30 12:00N 39°32' E 002°40'1 1.2
2018-Apr-30 11:30N 39°33' E 002°40'3 5.7
2018-Apr-30 11:00N 39°31' E 002°37'1 1.3
2018-Apr-30 10:30N 39°31' E 002°37'2 4.7
2018-Apr-30 10:00N 39°31' E 002°40'2 4.2
2018-Apr-30 09:30N 39°31' E 002°37'1 1.7
2018-Apr-30 09:00N 39°31' E 002°36'3 6.1
2018-Apr-30 08:30N 39°33' E 002°39'1 1.9
2018-Apr-30 07:58N 39°34' E 002°38'0 0.0
2018-Apr-30 07:29N 39°34' E 002°38'0 0.0
2018-Apr-30 06:59N 39°34' E 002°38'0 0.0
2018-Apr-30 06:26N 39°34' E 002°38'0 0.0
2018-Apr-29 15:39N 39°34' E 002°38'0 0.0
2018-Apr-29 15:30N 39°34' E 002°38'0 0.0
2018-Apr-29 15:00N 39°34' E 002°38'0 0.0
2018-Apr-29 14:30N 39°34' E 002°38'0 0.0
2018-Apr-29 14:00N 39°34' E 002°38'0 0.0
2018-Apr-29 13:30N 39°34' E 002°38'0 0.0
2018-Apr-29 13:00N 39°34' E 002°38'0 0.0
2018-Apr-29 12:30N 39°34' E 002°38'0 0.0
2018-Apr-29 12:00N 39°34' E 002°38'0 0.0
2018-Apr-29 11:29N 39°34' E 002°38'0 0.0
2018-Apr-29 10:59N 39°34' E 002°38'0 0.0
2018-Apr-29 10:29N 39°34' E 002°38'0 0.0
2018-Apr-29 09:59N 39°34' E 002°38'0 0.0
2018-Apr-29 09:26N 39°34' E 002°38'0 0.0
2018-Apr-29 08:59N 39°34' E 002°38'0 0.0
2018-Apr-29 08:29N 39°34' E 002°38'0 0.0
2018-Apr-29 07:59N 39°34' E 002°38'0 0.0
2018-Apr-29 07:30N 39°34' E 002°38'0 0.0
2018-Apr-29 06:59N 39°34' E 002°38'0 0.0
2018-Apr-29 06:25N 39°34' E 002°38'0 0.0
2018-Apr-28 15:35N 39°34' E 002°38'0 0.0
2018-Apr-28 15:29N 39°34' E 002°38'0 0.0
2018-Apr-28 14:59N 39°34' E 002°38'0 0.0
2018-Apr-28 14:29N 39°34' E 002°38'0 0.0
2018-Apr-28 13:59N 39°34' E 002°38'0 0.0
2018-Apr-28 13:29N 39°34' E 002°38'1 2.5
2018-Apr-28 13:00N 39°33' E 002°39'1 2.3
2018-Apr-28 12:30N 39°32' E 002°40'2 3.8
2018-Apr-28 12:00N 39°31' E 002°41'1 2.2
2018-Apr-28 11:30N 39°30' E 002°41'3 5.1
2018-Apr-28 11:00N 39°32' E 002°41'1 2.4
2018-Apr-28 10:29N 39°32' E 002°40'2 4.4
2018-Apr-28 10:00N 39°34' E 002°38'0 0.8
2018-Apr-28 09:28N 39°34' E 002°38'0 0.0
2018-Apr-28 08:58N 39°34' E 002°38'0 0.0
2018-Apr-28 08:28N 39°34' E 002°38'0 0.0
2018-Apr-28 07:58N 39°34' E 002°38'0 0.0
2018-Apr-28 07:28N 39°34' E 002°38'0 0.0
2018-Apr-27 17:24N 39°34' E 002°38'0 0.0
2018-Apr-27 17:00N 39°34' E 002°38'0 0.0
2018-Apr-27 16:30N 39°34' E 002°38'0 0.0
2018-Apr-27 16:00N 39°34' E 002°38'0 0.0
2018-Apr-27 15:30N 39°34' E 002°38'0 0.0
2018-Apr-27 15:00N 39°34' E 002°38'0 0.0
2018-Apr-27 14:30N 39°34' E 002°38'0 0.0
2018-Apr-27 14:00N 39°34' E 002°38'0 0.0
2018-Apr-27 13:30N 39°34' E 002°38'0 0.0
2018-Apr-27 13:00N 39°34' E 002°38'0 0.0
2018-Apr-27 12:30N 39°34' E 002°38'0 0.0
2018-Apr-27 12:00N 39°34' E 002°38'0 0.0
2018-Apr-27 11:30N 39°34' E 002°38'1 1.0
2018-Apr-27 11:01N 39°34' E 002°38'3 6.5
2018-Apr-27 10:30N 39°31' E 002°35'  
Track history (hours):
 
Tides and Currents Weather Stations Pressure Air Temp Water Temp Dewpoint Dewpoint Depression Visibility Wind Speed Wind Dir Waves Ship Positions

One Group

Last reported at 2018-Apr-30 15:31 UTC. Time now 2018-Jun-23 06:28 UTC.
Position N 39°34' E 002°38'.
Warning: this ship's position is 53 days out of date.

Length 5 m.

Type: Pleasure craft. MMSI: 211755340.

Date/timePositionNaut miles runAvg speedWind from/ knotsBaromVisibWave heightAir tempDewpointWater temp
2018-Apr-30 15:31N 39°34' E 002°38'0 0.0
2018-Apr-30 14:58N 39°34' E 002°38'0 0.1
2018-Apr-30 14:30N 39°34' E 002°38'0 0.1
2018-Apr-30 13:59N 39°34' E 002°38'0 0.0
2018-Apr-30 13:29N 39°34' E 002°38'1 2.5
2018-Apr-30 13:00N 39°33' E 002°39'1 1.3
2018-Apr-30 12:30N 39°33' E 002°40'0 0.8
2018-Apr-30 12:00N 39°32' E 002°40'1 1.2
2018-Apr-30 11:30N 39°33' E 002°40'3 5.7
2018-Apr-30 11:00N 39°31' E 002°37'1 1.3
2018-Apr-30 10:30N 39°31' E 002°37'2 4.7
2018-Apr-30 10:00N 39°31' E 002°40'2 4.2
2018-Apr-30 09:30N 39°31' E 002°37'1 1.7
2018-Apr-30 09:00N 39°31' E 002°36'3 6.1
2018-Apr-30 08:30N 39°33' E 002°39'1 1.9
2018-Apr-30 07:58N 39°34' E 002°38'0 0.0
2018-Apr-30 07:29N 39°34' E 002°38'0 0.0
2018-Apr-30 06:59N 39°34' E 002°38'0 0.0
2018-Apr-30 06:26N 39°34' E 002°38'0 0.0
2018-Apr-29 15:39N 39°34' E 002°38'0 0.0
2018-Apr-29 15:30N 39°34' E 002°38'0 0.0
2018-Apr-29 15:00N 39°34' E 002°38'0 0.0
2018-Apr-29 14:30N 39°34' E 002°38'0 0.0
2018-Apr-29 14:00N 39°34' E 002°38'0 0.0
2018-Apr-29 13:30N 39°34' E 002°38'0 0.0
2018-Apr-29 13:00N 39°34' E 002°38'0 0.0
2018-Apr-29 12:30N 39°34' E 002°38'0 0.0
2018-Apr-29 12:00N 39°34' E 002°38'0 0.0
2018-Apr-29 11:29N 39°34' E 002°38'0 0.0
2018-Apr-29 10:59N 39°34' E 002°38'0 0.0
2018-Apr-29 10:29N 39°34' E 002°38'0 0.0
2018-Apr-29 09:59N 39°34' E 002°38'0 0.0
2018-Apr-29 09:26N 39°34' E 002°38'0 0.0
2018-Apr-29 08:59N 39°34' E 002°38'0 0.0
2018-Apr-29 08:29N 39°34' E 002°38'0 0.0
2018-Apr-29 07:59N 39°34' E 002°38'0 0.0
2018-Apr-29 07:30N 39°34' E 002°38'0 0.0
2018-Apr-29 06:59N 39°34' E 002°38'0 0.0
2018-Apr-29 06:25N 39°34' E 002°38'0 0.0
2018-Apr-28 15:35N 39°34' E 002°38'0 0.0
2018-Apr-28 15:29N 39°34' E 002°38'0 0.0
2018-Apr-28 14:59N 39°34' E 002°38'0 0.0
2018-Apr-28 14:29N 39°34' E 002°38'0 0.0
2018-Apr-28 13:59N 39°34' E 002°38'0 0.0
2018-Apr-28 13:29N 39°34' E 002°38'1 2.5
2018-Apr-28 13:00N 39°33' E 002°39'1 2.3
2018-Apr-28 12:30N 39°32' E 002°40'2 3.8
2018-Apr-28 12:00N 39°31' E 002°41'1 2.2
2018-Apr-28 11:30N 39°30' E 002°41'3 5.1
2018-Apr-28 11:00N 39°32' E 002°41'1 2.4
2018-Apr-28 10:29N 39°32' E 002°40'2 4.4
2018-Apr-28 10:00N 39°34' E 002°38'0 0.8
2018-Apr-28 09:28N 39°34' E 002°38'0 0.0
2018-Apr-28 08:58N 39°34' E 002°38'0 0.0
2018-Apr-28 08:28N 39°34' E 002°38'0 0.0
2018-Apr-28 07:58N 39°34' E 002°38'0 0.0
2018-Apr-28 07:28N 39°34' E 002°38'0 0.0
2018-Apr-27 17:24N 39°34' E 002°38'0 0.0
2018-Apr-27 17:00N 39°34' E 002°38'0 0.0
2018-Apr-27 16:30N 39°34' E 002°38'0 0.0
2018-Apr-27 16:00N 39°34' E 002°38'0 0.0
2018-Apr-27 15:30N 39°34' E 002°38'0 0.0
2018-Apr-27 15:00N 39°34' E 002°38'0 0.0
2018-Apr-27 14:30N 39°34' E 002°38'0 0.0
2018-Apr-27 14:00N 39°34' E 002°38'0 0.0
2018-Apr-27 13:30N 39°34' E 002°38'0 0.0
2018-Apr-27 13:00N 39°34' E 002°38'0 0.0
2018-Apr-27 12:30N 39°34' E 002°38'0 0.0
2018-Apr-27 12:00N 39°34' E 002°38'0 0.0
2018-Apr-27 11:30N 39°34' E 002°38'1 1.0
2018-Apr-27 11:01N 39°34' E 002°38'3 6.5
2018-Apr-27 10:30N 39°31' E 002°35'  

Dump ship's entire track history